createdAt,value
2019-03-15T00:01:54.392Z,6.20
2019-03-15T00:04:25.222Z,6.20
2019-03-15T00:06:55.933Z,6.30
2019-03-15T00:09:29.039Z,6.30
2019-03-15T00:12:01.047Z,6.20
2019-03-15T00:14:32.310Z,6.20
2019-03-15T00:17:04.552Z,6.20
2019-03-15T00:19:37.290Z,6.20
2019-03-15T00:22:09.437Z,6.10
2019-03-15T00:24:40.537Z,6.10
2019-03-15T00:27:13.102Z,6.10
2019-03-15T00:29:43.898Z,6.10
2019-03-15T00:32:19.833Z,6.10
2019-03-15T00:34:50.646Z,6.10
2019-03-15T00:37:24.022Z,6.10
2019-03-15T00:39:54.932Z,6.10
2019-03-15T00:42:25.735Z,6.10
2019-03-15T00:44:56.546Z,6.10
2019-03-15T00:47:27.800Z,6.10
2019-03-15T00:50:01.295Z,6.10
2019-03-15T00:52:32.146Z,6.10
2019-03-15T00:55:06.013Z,6.00
2019-03-15T00:57:38.168Z,6.00
2019-03-15T01:00:10.432Z,6.10
2019-03-15T01:02:44.051Z,6.00
2019-03-15T01:05:13.870Z,6.00
2019-03-15T01:07:44.900Z,6.10
2019-03-15T01:10:17.508Z,6.00
2019-03-15T01:12:49.519Z,6.10
2019-03-15T01:15:22.926Z,6.00
2019-03-15T01:17:53.733Z,6.10
2019-03-15T01:20:24.511Z,6.00
2019-03-15T01:22:55.274Z,6.10
2019-03-15T01:25:26.091Z,6.00
2019-03-15T01:27:56.986Z,6.00
2019-03-15T01:30:28.099Z,6.00
2019-03-15T01:36:53.133Z,6.00
2019-03-15T01:39:30.375Z,6.00
2019-03-15T01:42:05.006Z,6.00
2019-03-15T01:44:39.818Z,6.00
2019-03-15T01:47:10.868Z,6.00
2019-03-15T01:49:44.762Z,6.10
2019-03-15T01:52:14.416Z,6.10
2019-03-15T01:54:50.039Z,6.10
2019-03-15T01:57:23.910Z,6.10
2019-03-15T01:59:57.924Z,6.10
2019-03-15T02:02:28.515Z,6.10
2019-03-15T02:05:00.313Z,6.20
2019-03-15T02:07:31.231Z,6.10
2019-03-15T02:10:08.519Z,6.10
2019-03-15T02:12:39.838Z,6.20
2019-03-15T02:18:52.837Z,6.20
2019-03-15T02:21:23.584Z,6.20
2019-03-15T02:23:54.339Z,6.20
2019-03-15T02:26:26.384Z,6.10
2019-03-15T02:29:00.820Z,6.10
2019-03-15T02:31:33.525Z,6.20
2019-03-15T02:34:06.754Z,6.10
2019-03-15T02:36:40.256Z,6.10
2019-03-15T02:39:13.843Z,6.10
2019-03-15T02:41:47.129Z,6.20
2019-03-15T02:44:19.880Z,6.20
2019-03-15T02:46:55.466Z,6.20
2019-03-15T02:49:27.649Z,6.20
2019-03-15T02:52:02.387Z,6.20
2019-03-15T02:54:36.318Z,6.20
2019-03-15T02:57:11.856Z,6.20
2019-03-15T03:00:38.788Z,6.20
2019-03-15T03:03:12.046Z,6.20
2019-03-15T03:05:43.127Z,6.20
2019-03-15T03:08:14.320Z,6.20
2019-03-15T03:10:48.439Z,6.30
2019-03-15T03:13:24.080Z,6.30
2019-03-15T03:15:56.269Z,6.30
2019-03-15T03:18:28.682Z,6.30
2019-03-15T03:21:02.972Z,6.40
2019-03-15T03:23:36.619Z,6.30
2019-03-15T03:26:07.518Z,6.30
2019-03-15T03:28:38.361Z,6.30
2019-03-15T03:31:09.137Z,6.30
2019-03-15T03:33:40.916Z,6.20
2019-03-15T03:36:14.037Z,6.20
2019-03-15T03:38:47.613Z,6.20
2019-03-15T03:41:18.278Z,6.20
2019-03-15T03:47:54.812Z,6.20
2019-03-15T04:11:54.209Z,6.00
2019-03-15T04:14:13.007Z,6.00
2019-03-15T04:21:05.049Z,5.90
2019-03-15T04:23:39.082Z,5.90
2019-03-15T04:26:11.655Z,5.90
2019-03-15T04:28:42.429Z,5.90
2019-03-15T04:31:15.966Z,5.90
2019-03-15T04:33:49.836Z,6.00
2019-03-15T04:36:25.504Z,6.00
2019-03-15T04:38:56.627Z,6.00
2019-03-15T04:41:30.905Z,6.00
2019-03-15T04:44:07.715Z,6.00
2019-03-15T04:46:55.261Z,6.00
2019-03-15T05:04:01.075Z,6.00
2019-03-15T05:07:08.454Z,6.00
2019-03-15T05:10:09.268Z,6.00
2019-03-15T05:19:34.404Z,6.00
2019-03-15T05:22:08.135Z,6.00
2019-03-15T05:28:23.678Z,6.10
2019-03-15T05:30:57.713Z,6.10
2019-03-15T05:33:28.516Z,6.10
2019-03-15T05:35:59.475Z,6.00
2019-03-15T05:38:34.599Z,6.00
2019-03-15T05:41:07.421Z,6.00
2019-03-15T05:43:47.770Z,6.00
2019-03-15T05:46:20.463Z,6.00
2019-03-15T05:48:52.937Z,6.00
2019-03-15T05:51:24.887Z,6.00
2019-03-15T05:53:57.262Z,6.00
2019-03-15T05:56:32.905Z,6.00
2019-03-15T05:59:04.018Z,6.00
2019-03-15T06:01:34.798Z,6.10
2019-03-15T06:04:05.926Z,6.00
2019-03-15T06:06:41.817Z,6.00
2019-03-15T06:09:13.884Z,6.10
2019-03-15T06:16:04.141Z,6.10
2019-03-15T06:18:34.924Z,6.10
2019-03-15T06:21:05.687Z,6.20
2019-03-15T06:23:36.752Z,6.10
2019-03-15T06:26:15.494Z,6.10
2019-03-15T06:28:46.610Z,6.20
2019-03-15T06:31:20.706Z,6.10
2019-03-15T06:33:54.891Z,6.20
2019-03-15T06:36:25.403Z,6.20
2019-03-15T06:38:56.219Z,6.20
2019-03-15T06:41:28.281Z,6.30
2019-03-15T06:44:00.868Z,6.20
2019-03-15T06:46:31.555Z,6.30
2019-03-15T06:49:05.081Z,6.30
2019-03-15T06:51:42.001Z,6.30
2019-03-15T06:54:12.826Z,6.30
2019-03-15T07:00:25.989Z,6.50
2019-03-15T07:02:56.972Z,6.40
2019-03-15T07:09:10.537Z,6.40
2019-03-15T07:11:43.605Z,6.40
2019-03-15T07:14:14.285Z,6.50
2019-03-15T07:16:45.298Z,6.60
2019-03-15T07:19:27.372Z,6.50
2019-03-15T07:21:56.413Z,6.60
2019-03-15T07:24:27.066Z,6.60
2019-03-15T07:27:12.134Z,6.70
2019-03-15T07:29:34.254Z,6.80
2019-03-15T07:32:05.034Z,6.90
2019-03-15T07:34:38.201Z,6.90
2019-03-15T07:41:03.503Z,6.90
2019-03-15T07:43:35.156Z,6.80
2019-03-15T07:46:09.631Z,6.80
2019-03-15T07:48:40.476Z,6.80
2019-03-15T07:51:11.369Z,6.80
2019-03-15T07:57:26.838Z,6.90
2019-03-15T07:59:57.765Z,6.90
2019-03-15T08:02:28.536Z,6.80
2019-03-15T08:04:59.194Z,6.90
2019-03-15T08:07:36.289Z,6.80
2019-03-15T08:10:02.280Z,6.90
2019-03-15T08:12:38.465Z,6.90
2019-03-15T08:15:10.327Z,7.10
2019-03-15T08:21:25.671Z,7.40
2019-03-15T08:24:00.228Z,7.40
2019-03-15T08:26:37.157Z,7.30
2019-03-15T08:29:09.870Z,7.20
2019-03-15T08:31:40.908Z,7.20
2019-03-15T08:34:11.553Z,7.30
2019-03-15T08:36:42.056Z,7.30
2019-03-15T08:39:13.232Z,7.50
2019-03-15T08:41:47.022Z,7.60
2019-03-15T08:44:20.268Z,7.80
2019-03-15T08:46:52.025Z,7.90
2019-03-15T08:53:06.452Z,8.10
2019-03-15T08:55:39.845Z,7.80
2019-03-15T09:01:52.694Z,7.60
2019-03-15T09:04:24.464Z,8.00
2019-03-15T09:10:37.731Z,8.20
2019-03-15T09:13:11.071Z,8.00
2019-03-15T09:15:41.841Z,7.70
2019-03-15T09:18:14.820Z,7.80
2019-03-15T09:20:45.899Z,7.80
2019-03-15T09:23:21.362Z,7.90
2019-03-15T09:25:51.949Z,7.80
2019-03-15T09:28:22.794Z,7.70
2019-03-15T09:30:53.487Z,7.80
2019-03-15T09:33:24.371Z,8.10
2019-03-15T09:35:54.911Z,8.20
2019-03-15T09:38:27.489Z,8.50
2019-03-15T09:41:00.037Z,8.50
2019-03-15T09:43:35.595Z,8.50
2019-03-15T09:49:50.268Z,8.50
2019-03-15T09:52:24.003Z,8.30
2019-03-15T09:55:00.447Z,8.40
2019-03-15T09:57:32.592Z,8.60
2019-03-15T10:00:07.870Z,8.60
2019-03-15T10:02:38.552Z,8.60
2019-03-15T10:05:11.257Z,8.30
2019-03-15T10:07:44.478Z,8.20
2019-03-15T10:10:19.954Z,8.40
2019-03-15T10:16:33.147Z,8.60
2019-03-15T10:19:04.125Z,9.10
2019-03-15T10:21:34.729Z,9.80
2019-03-15T10:27:37.993Z,10.40
2019-03-15T10:30:10.737Z,10.10
2019-03-15T10:32:43.002Z,9.70
2019-03-15T10:35:16.548Z,9.60
2019-03-15T10:37:50.731Z,9.50
2019-03-15T10:40:21.484Z,9.80
2019-03-15T10:42:55.487Z,10.00
2019-03-15T10:45:27.603Z,10.30
2019-03-15T10:48:00.164Z,10.40
2019-03-15T10:50:32.874Z,10.50
2019-03-15T10:56:47.325Z,9.80
2019-03-15T10:59:20.288Z,9.30
2019-03-15T11:01:52.317Z,9.30
2019-03-15T11:04:22.915Z,9.30
2019-03-15T11:06:53.906Z,9.20
2019-03-15T11:09:26.481Z,9.20
2019-03-15T11:11:59.552Z,9.10
2019-03-15T11:14:30.131Z,9.20
2019-03-15T11:17:02.379Z,9.20
2019-03-15T11:19:34.427Z,9.20
2019-03-15T11:22:06.294Z,9.00
2019-03-15T11:24:36.761Z,8.70
2019-03-15T11:27:10.388Z,9.00
2019-03-15T11:29:41.512Z,9.30
2019-03-15T11:32:12.308Z,9.70
2019-03-15T11:38:37.379Z,9.60
2019-03-15T11:41:08.041Z,10.00
2019-03-15T11:43:41.651Z,9.90
2019-03-15T11:46:12.295Z,9.90
2019-03-15T11:48:46.100Z,9.90
2019-03-15T11:51:16.861Z,9.80
2019-03-15T11:53:47.589Z,9.70
2019-03-15T11:56:27.041Z,9.90
2019-03-15T11:58:52.113Z,10.10
2019-03-15T12:01:24.076Z,10.10
2019-03-15T12:07:49.171Z,9.90
2019-03-15T12:10:24.990Z,9.70
2019-03-15T12:12:56.954Z,9.80
2019-03-15T12:15:27.734Z,9.70
2019-03-15T12:17:58.381Z,9.90
2019-03-15T12:20:28.911Z,10.00
2019-03-15T12:23:00.881Z,10.00
2019-03-15T12:25:31.698Z,10.00
2019-03-15T12:28:02.313Z,10.20
2019-03-15T12:30:33.083Z,10.30
2019-03-15T12:33:04.200Z,10.10
2019-03-15T12:35:34.745Z,10.00
2019-03-15T12:42:13.538Z,9.90
2019-03-15T12:44:49.953Z,9.50
2019-03-15T12:47:20.571Z,9.50
2019-03-15T12:49:55.036Z,9.50
2019-03-15T12:52:25.561Z,9.40
2019-03-15T12:55:01.637Z,9.50
2019-03-15T12:57:32.185Z,9.70
2019-03-15T13:00:02.707Z,9.80
2019-03-15T13:02:33.208Z,9.90
2019-03-15T13:05:03.738Z,9.80
2019-03-15T13:07:34.360Z,9.70
2019-03-15T13:10:12.253Z,9.50
2019-03-15T13:16:15.855Z,8.80
2019-03-15T13:18:46.547Z,8.80
2019-03-15T13:21:17.020Z,8.90
2019-03-15T13:23:47.669Z,9.00
2019-03-15T13:26:20.524Z,9.10
2019-03-15T13:28:54.592Z,9.30
2019-03-15T13:31:28.095Z,9.50
2019-03-15T13:34:02.753Z,9.30
2019-03-15T13:36:33.336Z,9.20
2019-03-15T13:39:04.748Z,9.00
2019-03-15T13:41:35.355Z,9.00
2019-03-15T13:47:38.728Z,8.90
2019-03-15T13:50:11.712Z,8.80
2019-03-15T13:52:42.321Z,8.70
2019-03-15T13:55:15.798Z,8.60
2019-03-15T13:57:48.701Z,8.40
2019-03-15T14:00:19.343Z,8.00
2019-03-15T14:02:49.901Z,7.90
2019-03-15T14:05:23.916Z,8.00
2019-03-15T14:07:54.825Z,7.90
2019-03-15T14:10:25.489Z,7.60
2019-03-15T14:12:59.067Z,7.40
2019-03-15T14:15:29.694Z,7.20
2019-03-15T14:18:00.646Z,6.90
2019-03-15T14:20:38.042Z,6.80
2019-03-15T14:23:08.434Z,6.70
2019-03-15T14:25:38.933Z,6.80
2019-03-15T14:28:09.522Z,6.70
2019-03-15T14:34:38.846Z,6.70
2019-03-15T14:37:10.412Z,6.70
2019-03-15T14:39:41.763Z,6.70
2019-03-15T14:42:12.416Z,6.60
2019-03-15T14:44:43.213Z,6.60
2019-03-15T14:47:14.016Z,6.70
2019-03-15T14:49:44.604Z,6.70
2019-03-15T14:52:16.696Z,6.70
2019-03-15T14:54:47.263Z,6.70
2019-03-15T14:57:21.560Z,6.80
2019-03-15T14:59:52.076Z,6.80
2019-03-15T15:02:22.535Z,6.80
2019-03-15T15:04:53.044Z,6.80
2019-03-15T15:07:27.865Z,6.80
2019-03-15T15:09:58.905Z,6.80
2019-03-15T15:12:31.140Z,6.80
2019-03-15T15:15:01.669Z,6.80
2019-03-15T15:17:32.145Z,6.90
2019-03-15T15:20:02.890Z,6.90
2019-03-15T15:26:05.221Z,7.00
2019-03-15T15:28:38.999Z,7.00
2019-03-15T15:31:12.099Z,7.10
2019-03-15T15:33:43.970Z,7.10
2019-03-15T15:36:14.725Z,7.10
2019-03-15T15:38:45.432Z,7.20
2019-03-15T15:41:15.919Z,7.20
2019-03-15T15:43:48.835Z,7.30
2019-03-15T15:46:21.433Z,7.30
2019-03-15T15:48:53.052Z,7.30
2019-03-15T15:51:23.855Z,7.30
2019-03-15T15:53:54.361Z,7.30
2019-03-15T15:56:25.111Z,7.40
2019-03-15T15:58:58.813Z,7.50
2019-03-15T16:01:29.265Z,7.60
2019-03-15T16:04:01.629Z,7.60
2019-03-15T16:06:38.189Z,7.70
2019-03-15T16:09:08.733Z,7.70
2019-03-15T16:11:41.375Z,7.80
2019-03-15T16:14:13.071Z,7.90
2019-03-15T16:16:46.083Z,8.00
2019-03-15T16:19:23.112Z,7.90
2019-03-15T16:26:01.025Z,8.00
2019-03-15T16:28:36.009Z,8.00
2019-03-15T16:31:04.973Z,8.00
2019-03-15T16:33:35.460Z,8.10
2019-03-15T16:36:06.132Z,8.20
2019-03-15T16:38:36.762Z,8.20
2019-03-15T16:41:07.451Z,8.20
2019-03-15T16:43:45.487Z,8.30
2019-03-15T16:46:16.501Z,8.30
2019-03-15T16:48:46.999Z,8.30
2019-03-15T16:51:20.162Z,8.30
2019-03-15T16:57:45.641Z,8.20
2019-03-15T17:00:16.476Z,8.20
2019-03-15T17:06:33.783Z,8.20
2019-03-15T17:09:06.928Z,8.30
2019-03-15T17:11:39.534Z,8.20
2019-03-15T17:14:10.337Z,8.10
2019-03-15T17:16:40.964Z,8.00
2019-03-15T17:19:11.693Z,8.00
2019-03-15T17:21:42.356Z,7.90
2019-03-15T17:24:12.888Z,7.90
2019-03-15T17:26:43.737Z,8.00
2019-03-15T17:29:14.733Z,8.20
2019-03-15T17:31:45.910Z,8.10
2019-03-15T17:34:19.112Z,8.20
2019-03-15T17:36:50.288Z,8.10
2019-03-15T17:39:24.063Z,8.10
2019-03-15T17:41:54.841Z,8.10
2019-03-15T17:44:25.522Z,8.10
2019-03-15T17:46:57.588Z,8.20
2019-03-15T17:49:30.644Z,8.20
2019-03-15T17:52:05.773Z,8.20
2019-03-15T17:54:36.756Z,8.30
2019-03-15T17:57:09.439Z,8.30
2019-03-15T18:00:10.558Z,8.30
2019-03-15T18:02:42.323Z,8.50
2019-03-15T18:05:17.769Z,8.60
2019-03-15T18:07:48.445Z,8.60
2019-03-15T18:10:19.353Z,8.60
2019-03-15T18:12:51.410Z,8.60
2019-03-15T18:19:17.257Z,8.50
2019-03-15T18:21:48.666Z,8.50
2019-03-15T18:28:03.972Z,8.20
2019-03-15T18:30:36.677Z,8.00
2019-03-15T18:33:08.234Z,8.10
2019-03-15T18:35:40.239Z,8.00
2019-03-15T18:38:14.127Z,7.90
2019-03-15T18:40:51.942Z,7.90
2019-03-15T18:47:42.665Z,8.10
2019-03-15T18:50:17.096Z,7.90
2019-03-15T18:52:49.754Z,7.90
2019-03-15T18:59:07.519Z,7.90
2019-03-15T19:01:39.842Z,7.80
2019-03-15T19:04:10.706Z,7.70
2019-03-15T19:06:44.642Z,7.70
2019-03-15T19:09:15.425Z,7.70
2019-03-15T19:11:49.557Z,7.60
2019-03-15T19:14:23.073Z,7.60
2019-03-15T19:16:59.421Z,7.60
2019-03-15T19:19:30.216Z,7.70
2019-03-15T19:22:02.661Z,7.60
2019-03-15T19:28:19.571Z,7.70
2019-03-15T19:30:51.594Z,7.70
2019-03-15T19:33:22.352Z,7.70
2019-03-15T19:36:03.211Z,7.60
2019-03-15T19:38:38.510Z,7.70
2019-03-15T19:41:14.700Z,7.70
2019-03-15T19:43:45.612Z,7.60
2019-03-15T19:46:19.695Z,7.60
2019-03-15T19:48:53.336Z,7.70
2019-03-15T19:51:30.586Z,7.70
2019-03-15T19:54:01.285Z,7.70
2019-03-15T19:56:33.712Z,7.70
2019-03-15T19:59:07.681Z,7.80
2019-03-15T20:01:44.133Z,7.80
2019-03-15T20:07:56.637Z,7.80
2019-03-15T20:10:28.673Z,7.70
2019-03-15T20:13:06.501Z,7.60
2019-03-15T20:15:39.889Z,7.60
2019-03-15T20:18:13.147Z,7.60
2019-03-15T20:20:46.468Z,7.60
2019-03-15T20:26:48.359Z,7.50
2019-03-15T20:29:19.274Z,7.30
2019-03-15T20:31:50.199Z,7.40
2019-03-15T20:34:22.120Z,7.30
2019-03-15T20:36:52.836Z,7.20
2019-03-15T20:39:23.740Z,7.20
2019-03-15T20:45:38.144Z,7.20
2019-03-15T20:48:11.986Z,7.20
2019-03-15T20:50:47.165Z,7.20
2019-03-15T20:53:15.781Z,7.10
2019-03-15T20:59:29.417Z,7.10
2019-03-15T21:02:00.089Z,7.10
2019-03-15T21:04:31.245Z,7.10
2019-03-15T21:07:02.030Z,7.10
2019-03-15T21:09:32.781Z,7.10
2019-03-15T21:12:06.308Z,7.10
2019-03-15T21:14:37.182Z,7.10
2019-03-15T21:17:07.901Z,7.10
2019-03-15T21:19:39.023Z,7.10
2019-03-15T21:25:52.348Z,7.10
2019-03-15T21:28:23.096Z,7.00
2019-03-15T21:30:54.238Z,6.90
2019-03-15T21:33:25.132Z,6.70
2019-03-15T21:35:55.892Z,6.80
2019-03-15T21:42:09.174Z,6.70
2019-03-15T21:44:43.824Z,6.80
2019-03-15T21:47:16.220Z,6.80
2019-03-15T21:49:52.522Z,6.80
2019-03-15T21:56:17.823Z,6.70
2019-03-15T21:58:51.102Z,6.50
2019-03-15T22:01:21.862Z,6.50
2019-03-15T22:03:52.895Z,6.60
2019-03-15T22:06:23.522Z,6.70
2019-03-15T22:08:55.570Z,6.70
2019-03-15T22:11:30.883Z,6.80
2019-03-15T22:14:04.624Z,6.80
2019-03-15T22:16:42.728Z,6.80
2019-03-15T22:19:18.236Z,6.80
2019-03-15T22:21:52.310Z,6.80
2019-03-15T22:28:19.073Z,6.60
2019-03-15T22:30:54.568Z,6.60
2019-03-15T22:33:25.135Z,6.60
2019-03-15T22:39:37.797Z,6.60
2019-03-15T22:46:02.329Z,6.50
2019-03-15T22:52:18.357Z,6.40
2019-03-15T22:58:31.854Z,6.40
2019-03-15T23:01:05.849Z,6.30
2019-03-15T23:03:40.994Z,6.30
2019-03-15T23:06:13.328Z,6.40
2019-03-15T23:08:43.914Z,6.50
2019-03-15T23:11:15.525Z,6.60
2019-03-15T23:13:46.263Z,6.60
2019-03-15T23:16:16.864Z,6.40
2019-03-15T23:18:47.918Z,6.40
2019-03-15T23:21:22.404Z,6.30
2019-03-15T23:23:52.992Z,6.30
2019-03-15T23:26:23.480Z,6.20
2019-03-15T23:28:54.089Z,6.10
2019-03-15T23:31:26.421Z,6.10
2019-03-15T23:33:57.223Z,6.20
2019-03-15T23:36:28.065Z,6.20
2019-03-15T23:38:58.988Z,6.10
2019-03-15T23:41:31.674Z,6.20
2019-03-15T23:44:02.421Z,6.10
2019-03-15T23:46:35.295Z,6.20
2019-03-15T23:49:06.908Z,6.10
2019-03-15T23:51:37.808Z,6.10
2019-03-15T23:54:15.020Z,6.10
2019-03-15T23:56:46.019Z,6.10
